sensor_id;sensor_type;location;lat;lon;timestamp;temperature;humidity
10980;DHT22;5543;51.734;8.744;2022-08-03T00:02:17;17.60;99.90
10980;DHT22;5543;51.734;8.744;2022-08-03T00:04:46;17.50;99.90
10980;DHT22;5543;51.734;8.744;2022-08-03T00:07:15;17.50;99.90
10980;DHT22;5543;51.734;8.744;2022-08-03T00:09:44;17.50;99.90
10980;DHT22;5543;51.734;8.744;2022-08-03T00:12:12;17.50;99.90
10980;DHT22;5543;51.734;8.744;2022-08-03T00:14:40;17.40;99.90
10980;DHT22;5543;51.734;8.744;2022-08-03T00:17:09;17.40;99.90
10980;DHT22;5543;51.734;8.744;2022-08-03T00:19:37;17.40;99.90
10980;DHT22;5543;51.734;8.744;2022-08-03T00:22:05;17.40;99.90
10980;DHT22;5543;51.734;8.744;2022-08-03T00:24:34;17.40;99.90
10980;DHT22;5543;51.734;8.744;2022-08-03T00:27:03;17.30;99.90
10980;DHT22;5543;51.734;8.744;2022-08-03T00:29:31;17.30;99.90
10980;DHT22;5543;51.734;8.744;2022-08-03T00:32:19;17.30;99.90
10980;DHT22;5543;51.734;8.744;2022-08-03T00:34:50;17.30;99.90
10980;DHT22;5543;51.734;8.744;2022-08-03T00:37:24;17.30;99.90
10980;DHT22;5543;51.734;8.744;2022-08-03T00:40:10;17.30;99.90
10980;DHT22;5543;51.734;8.744;2022-08-03T00:42:47;17.20;99.90
10980;DHT22;5543;51.734;8.744;2022-08-03T00:45:16;17.20;99.90
10980;DHT22;5543;51.734;8.744;2022-08-03T00:47:45;17.20;99.90
10980;DHT22;5543;51.734;8.744;2022-08-03T00:50:14;17.20;99.90
10980;DHT22;5543;51.734;8.744;2022-08-03T00:52:43;17.20;99.90
10980;DHT22;5543;51.734;8.744;2022-08-03T00:55:12;17.10;99.90
10980;DHT22;5543;51.734;8.744;2022-08-03T00:57:41;17.10;99.90
10980;DHT22;5543;51.734;8.744;2022-08-03T01:00:12;17.10;99.90
10980;DHT22;5543;51.734;8.744;2022-08-03T01:02:41;17.10;99.90
10980;DHT22;5543;51.734;8.744;2022-08-03T01:05:09;17.10;99.90
10980;DHT22;5543;51.734;8.744;2022-08-03T01:07:45;17.10;99.90
10980;DHT22;5543;51.734;8.744;2022-08-03T01:10:23;17.10;99.90
10980;DHT22;5543;51.734;8.744;2022-08-03T01:13:02;17.00;99.90
10980;DHT22;5543;51.734;8.744;2022-08-03T01:15:35;17.00;99.90
10980;DHT22;5543;51.734;8.744;2022-08-03T01:18:08;17.00;99.90
10980;DHT22;5543;51.734;8.744;2022-08-03T01:20:42;16.90;99.90
10980;DHT22;5543;51.734;8.744;2022-08-03T01:23:26;16.90;99.90
10980;DHT22;5543;51.734;8.744;2022-08-03T01:26:18;16.90;99.90
10980;DHT22;5543;51.734;8.744;2022-08-03T01:29:03;16.90;99.90
10980;DHT22;5543;51.734;8.744;2022-08-03T01:31:40;16.90;99.90
10980;DHT22;5543;51.734;8.744;2022-08-03T01:34:33;16.80;99.90
10980;DHT22;5543;51.734;8.744;2022-08-03T01:37:05;16.80;99.90
10980;DHT22;5543;51.734;8.744;2022-08-03T01:39:36;16.80;99.90
10980;DHT22;5543;51.734;8.744;2022-08-03T01:42:08;16.80;99.90
10980;DHT22;5543;51.734;8.744;2022-08-03T01:44:40;16.80;99.90
10980;DHT22;5543;51.734;8.744;2022-08-03T01:47:11;16.70;99.90
10980;DHT22;5543;51.734;8.744;2022-08-03T01:49:42;16.70;99.90
10980;DHT22;5543;51.734;8.744;2022-08-03T01:52:16;16.70;99.90
10980;DHT22;5543;51.734;8.744;2022-08-03T01:54:48;16.70;99.90
10980;DHT22;5543;51.734;8.744;2022-08-03T01:57:18;16.60;99.90
10980;DHT22;5543;51.734;8.744;2022-08-03T01:59:48;16.60;99.90
10980;DHT22;5543;51.734;8.744;2022-08-03T02:02:19;16.60;99.90
10980;DHT22;5543;51.734;8.744;2022-08-03T02:05:00;16.60;99.90
10980;DHT22;5543;51.734;8.744;2022-08-03T02:07:32;16.50;99.90
10980;DHT22;5543;51.734;8.744;2022-08-03T02:10:04;16.50;99.90
10980;DHT22;5543;51.734;8.744;2022-08-03T02:12:33;16.50;99.90
10980;DHT22;5543;51.734;8.744;2022-08-03T02:15:03;16.50;99.90
10980;DHT22;5543;51.734;8.744;2022-08-03T02:17:34;16.50;99.90
10980;DHT22;5543;51.734;8.744;2022-08-03T02:20:07;16.50;99.90
10980;DHT22;5543;51.734;8.744;2022-08-03T02:22:38;16.40;99.90
10980;DHT22;5543;51.734;8.744;2022-08-03T02:25:07;16.40;99.90
10980;DHT22;5543;51.734;8.744;2022-08-03T02:27:39;16.40;99.90
10980;DHT22;5543;51.734;8.744;2022-08-03T02:30:11;16.50;99.90
10980;DHT22;5543;51.734;8.744;2022-08-03T02:32:43;16.40;99.90
10980;DHT22;5543;51.734;8.744;2022-08-03T02:35:15;16.40;99.90
10980;DHT22;5543;51.734;8.744;2022-08-03T02:37:46;16.40;99.90
10980;DHT22;5543;51.734;8.744;2022-08-03T02:40:17;16.40;99.90
10980;DHT22;5543;51.734;8.744;2022-08-03T02:42:48;16.40;99.90
10980;DHT22;5543;51.734;8.744;2022-08-03T02:45:20;16.40;99.90
10980;DHT22;5543;51.734;8.744;2022-08-03T02:47:54;16.40;99.90
10980;DHT22;5543;51.734;8.744;2022-08-03T02:50:24;16.40;99.90
10980;DHT22;5543;51.734;8.744;2022-08-03T02:52:54;16.40;99.90
10980;DHT22;5543;51.734;8.744;2022-08-03T02:55:25;16.40;99.90
10980;DHT22;5543;51.734;8.744;2022-08-03T02:57:54;16.30;99.90
10980;DHT22;5543;51.734;8.744;2022-08-03T03:00:28;16.30;99.90
10980;DHT22;5543;51.734;8.744;2022-08-03T03:03:01;16.30;99.90
10980;DHT22;5543;51.734;8.744;2022-08-03T03:05:32;16.40;99.90
10980;DHT22;5543;51.734;8.744;2022-08-03T03:08:22;16.30;99.90
10980;DHT22;5543;51.734;8.744;2022-08-03T03:10:55;16.30;99.90
10980;DHT22;5543;51.734;8.744;2022-08-03T03:13:24;16.30;99.90
10980;DHT22;5543;51.734;8.744;2022-08-03T03:15:53;16.30;99.90
10980;DHT22;5543;51.734;8.744;2022-08-03T03:18:26;16.30;99.90
10980;DHT22;5543;51.734;8.744;2022-08-03T03:20:55;16.30;99.90
10980;DHT22;5543;51.734;8.744;2022-08-03T03:23:26;16.30;99.90
10980;DHT22;5543;51.734;8.744;2022-08-03T03:25:55;16.30;99.90
10980;DHT22;5543;51.734;8.744;2022-08-03T03:28:24;16.30;99.90
10980;DHT22;5543;51.734;8.744;2022-08-03T03:30:53;16.30;99.90
10980;DHT22;5543;51.734;8.744;2022-08-03T03:33:22;16.20;99.90
10980;DHT22;5543;51.734;8.744;2022-08-03T03:35:51;16.20;99.90
10980;DHT22;5543;51.734;8.744;2022-08-03T03:38:20;16.20;99.90
10980;DHT22;5543;51.734;8.744;2022-08-03T03:40:48;16.10;99.90
10980;DHT22;5543;51.734;8.744;2022-08-03T03:43:16;16.10;99.90
10980;DHT22;5543;51.734;8.744;2022-08-03T03:45:46;16.10;99.90
10980;DHT22;5543;51.734;8.744;2022-08-03T03:48:15;16.00;99.90
10980;DHT22;5543;51.734;8.744;2022-08-03T03:50:43;16.00;99.90
10980;DHT22;5543;51.734;8.744;2022-08-03T03:53:13;16.10;99.90
10980;DHT22;5543;51.734;8.744;2022-08-03T03:55:42;16.00;99.90
10980;DHT22;5543;51.734;8.744;2022-08-03T03:58:28;16.00;99.90
10980;DHT22;5543;51.734;8.744;2022-08-03T04:00:56;16.00;99.90
10980;DHT22;5543;51.734;8.744;2022-08-03T04:03:25;15.90;99.90
10980;DHT22;5543;51.734;8.744;2022-08-03T04:05:53;15.80;99.90
10980;DHT22;5543;51.734;8.744;2022-08-03T04:08:40;15.90;99.90
10980;DHT22;5543;51.734;8.744;2022-08-03T04:11:28;15.90;99.90
10980;DHT22;5543;51.734;8.744;2022-08-03T04:14:02;15.90;99.90
10980;DHT22;5543;51.734;8.744;2022-08-03T04:16:35;15.90;99.90
10980;DHT22;5543;51.734;8.744;2022-08-03T04:19:13;15.90;99.90
10980;DHT22;5543;51.734;8.744;2022-08-03T04:21:51;15.90;99.90
10980;DHT22;5543;51.734;8.744;2022-08-03T04:24:27;16.00;99.90
10980;DHT22;5543;51.734;8.744;2022-08-03T04:26:56;15.80;99.90
10980;DHT22;5543;51.734;8.744;2022-08-03T04:29:28;16.00;99.90
10980;DHT22;5543;51.734;8.744;2022-08-03T04:31:59;16.20;99.90
10980;DHT22;5543;51.734;8.744;2022-08-03T04:34:29;16.10;99.90
10980;DHT22;5543;51.734;8.744;2022-08-03T04:36:59;16.10;99.90
10980;DHT22;5543;51.734;8.744;2022-08-03T04:39:30;16.10;99.90
10980;DHT22;5543;51.734;8.744;2022-08-03T04:42:02;16.20;99.90
10980;DHT22;5543;51.734;8.744;2022-08-03T04:44:43;16.20;99.90
10980;DHT22;5543;51.734;8.744;2022-08-03T04:47:13;16.20;99.90
10980;DHT22;5543;51.734;8.744;2022-08-03T04:49:41;16.20;99.90
10980;DHT22;5543;51.734;8.744;2022-08-03T04:52:10;16.30;99.90
10980;DHT22;5543;51.734;8.744;2022-08-03T04:54:41;16.30;99.90
10980;DHT22;5543;51.734;8.744;2022-08-03T04:57:17;16.30;99.90
10980;DHT22;5543;51.734;8.744;2022-08-03T04:59:49;16.30;99.90
10980;DHT22;5543;51.734;8.744;2022-08-03T05:02:28;16.40;99.90
10980;DHT22;5543;51.734;8.744;2022-08-03T05:04:57;16.40;99.90
10980;DHT22;5543;51.734;8.744;2022-08-03T05:07:25;16.50;99.90
10980;DHT22;5543;51.734;8.744;2022-08-03T05:10:04;16.50;99.90
10980;DHT22;5543;51.734;8.744;2022-08-03T05:12:41;16.50;99.90
10980;DHT22;5543;51.734;8.744;2022-08-03T05:15:10;16.50;99.90
10980;DHT22;5543;51.734;8.744;2022-08-03T05:17:38;16.60;99.90
10980;DHT22;5543;51.734;8.744;2022-08-03T05:20:07;16.60;99.90
10980;DHT22;5543;51.734;8.744;2022-08-03T05:22:35;16.70;99.90
10980;DHT22;5543;51.734;8.744;2022-08-03T05:25:06;16.70;99.90
10980;DHT22;5543;51.734;8.744;2022-08-03T05:27:34;16.80;99.90
10980;DHT22;5543;51.734;8.744;2022-08-03T05:30:03;16.90;99.90
10980;DHT22;5543;51.734;8.744;2022-08-03T05:32:51;17.00;99.90
10980;DHT22;5543;51.734;8.744;2022-08-03T05:35:20;17.10;99.90
10980;DHT22;5543;51.734;8.744;2022-08-03T05:38:11;17.20;99.90
10980;DHT22;5543;51.734;8.744;2022-08-03T05:40:51;17.30;99.90
10980;DHT22;5543;51.734;8.744;2022-08-03T05:43:23;17.40;99.90
10980;DHT22;5543;51.734;8.744;2022-08-03T05:45:51;17.50;99.90
10980;DHT22;5543;51.734;8.744;2022-08-03T05:48:38;17.60;99.90
10980;DHT22;5543;51.734;8.744;2022-08-03T05:51:08;17.70;99.90
10980;DHT22;5543;51.734;8.744;2022-08-03T05:53:38;17.80;99.90
10980;DHT22;5543;51.734;8.744;2022-08-03T05:56:07;17.90;99.90
10980;DHT22;5543;51.734;8.744;2022-08-03T05:58:41;18.00;99.90
10980;DHT22;5543;51.734;8.744;2022-08-03T06:01:10;18.10;99.90
10980;DHT22;5543;51.734;8.744;2022-08-03T06:03:38;18.20;99.90
10980;DHT22;5543;51.734;8.744;2022-08-03T06:06:06;18.30;99.90
10980;DHT22;5543;51.734;8.744;2022-08-03T06:08:34;18.40;99.90
10980;DHT22;5543;51.734;8.744;2022-08-03T06:11:02;18.50;99.90
10980;DHT22;5543;51.734;8.744;2022-08-03T06:13:32;18.50;99.90
10980;DHT22;5543;51.734;8.744;2022-08-03T06:16:00;18.60;99.90
10980;DHT22;5543;51.734;8.744;2022-08-03T06:18:28;18.80;99.90
10980;DHT22;5543;51.734;8.744;2022-08-03T06:20:56;18.90;99.90
10980;DHT22;5543;51.734;8.744;2022-08-03T06:23:40;19.00;99.90
10980;DHT22;5543;51.734;8.744;2022-08-03T06:26:23;19.20;99.90
10980;DHT22;5543;51.734;8.744;2022-08-03T06:28:53;19.30;99.90
10980;DHT22;5543;51.734;8.744;2022-08-03T06:31:22;19.40;99.90
10980;DHT22;5543;51.734;8.744;2022-08-03T06:34:02;19.50;99.90
10980;DHT22;5543;51.734;8.744;2022-08-03T06:36:51;19.60;99.90
10980;DHT22;5543;51.734;8.744;2022-08-03T06:39:27;19.80;99.90
10980;DHT22;5543;51.734;8.744;2022-08-03T06:41:55;19.90;99.90
10980;DHT22;5543;51.734;8.744;2022-08-03T06:44:25;20.10;99.90
10980;DHT22;5543;51.734;8.744;2022-08-03T06:46:53;20.20;99.90
10980;DHT22;5543;51.734;8.744;2022-08-03T06:49:21;20.40;99.90
10980;DHT22;5543;51.734;8.744;2022-08-03T06:51:49;20.60;99.90
10980;DHT22;5543;51.734;8.744;2022-08-03T06:54:33;20.80;99.90
10980;DHT22;5543;51.734;8.744;2022-08-03T06:57:02;21.00;99.90
10980;DHT22;5543;51.734;8.744;2022-08-03T06:59:32;21.20;99.90
10980;DHT22;5543;51.734;8.744;2022-08-03T07:02:20;21.50;99.90
10980;DHT22;5543;51.734;8.744;2022-08-03T07:04:49;21.80;99.90
10980;DHT22;5543;51.734;8.744;2022-08-03T07:07:17;22.00;99.90
10980;DHT22;5543;51.734;8.744;2022-08-03T07:09:46;22.20;99.90
10980;DHT22;5543;51.734;8.744;2022-08-03T07:12:25;22.40;99.90
10980;DHT22;5543;51.734;8.744;2022-08-03T07:14:56;22.60;99.90
10980;DHT22;5543;51.734;8.744;2022-08-03T07:17:28;22.80;99.90
10980;DHT22;5543;51.734;8.744;2022-08-03T07:19:56;23.00;99.90
10980;DHT22;5543;51.734;8.744;2022-08-03T07:22:24;23.20;99.90
10980;DHT22;5543;51.734;8.744;2022-08-03T07:24:53;23.40;99.90
10980;DHT22;5543;51.734;8.744;2022-08-03T07:27:21;23.50;99.90
10980;DHT22;5543;51.734;8.744;2022-08-03T07:29:49;23.60;99.90
10980;DHT22;5543;51.734;8.744;2022-08-03T07:32:18;23.80;99.90
10980;DHT22;5543;51.734;8.744;2022-08-03T07:34:46;23.90;99.90
10980;DHT22;5543;51.734;8.744;2022-08-03T07:37:15;24.00;99.90
10980;DHT22;5543;51.734;8.744;2022-08-03T07:39:43;24.20;99.90
10980;DHT22;5543;51.734;8.744;2022-08-03T07:42:11;24.30;99.90
10980;DHT22;5543;51.734;8.744;2022-08-03T07:44:40;24.40;99.90
10980;DHT22;5543;51.734;8.744;2022-08-03T07:47:08;24.50;99.90
10980;DHT22;5543;51.734;8.744;2022-08-03T07:49:49;24.60;99.90
10980;DHT22;5543;51.734;8.744;2022-08-03T07:52:18;24.70;99.90
10980;DHT22;5543;51.734;8.744;2022-08-03T07:55:04;24.80;99.90
10980;DHT22;5543;51.734;8.744;2022-08-03T07:57:33;25.00;99.90
10980;DHT22;5543;51.734;8.744;2022-08-03T08:00:03;25.20;99.90
10980;DHT22;5543;51.734;8.744;2022-08-03T08:02:31;25.20;99.90
10980;DHT22;5543;51.734;8.744;2022-08-03T08:05:01;25.30;99.90
10980;DHT22;5543;51.734;8.744;2022-08-03T08:07:31;25.50;99.90
10980;DHT22;5543;51.734;8.744;2022-08-03T08:09:59;25.60;99.10
10980;DHT22;5543;51.734;8.744;2022-08-03T08:12:28;25.80;98.70
10980;DHT22;5543;51.734;8.744;2022-08-03T08:14:56;25.90;99.40
10980;DHT22;5543;51.734;8.744;2022-08-03T08:17:24;26.20;99.60
10980;DHT22;5543;51.734;8.744;2022-08-03T08:19:52;26.40;97.20
10980;DHT22;5543;51.734;8.744;2022-08-03T08:22:22;26.60;97.00
10980;DHT22;5543;51.734;8.744;2022-08-03T08:24:56;26.90;95.90
10980;DHT22;5543;51.734;8.744;2022-08-03T08:27:25;27.20;97.50
10980;DHT22;5543;51.734;8.744;2022-08-03T08:29:53;27.60;96.10
10980;DHT22;5543;51.734;8.744;2022-08-03T08:32:30;27.90;94.10
10980;DHT22;5543;51.734;8.744;2022-08-03T08:34:58;28.20;92.60
10980;DHT22;5543;51.734;8.744;2022-08-03T08:37:28;28.50;91.40
10980;DHT22;5543;51.734;8.744;2022-08-03T08:39:56;28.70;91.30
10980;DHT22;5543;51.734;8.744;2022-08-03T08:42:24;29.00;91.60
10980;DHT22;5543;51.734;8.744;2022-08-03T08:44:53;29.30;91.40
10980;DHT22;5543;51.734;8.744;2022-08-03T08:47:24;29.60;88.60
10980;DHT22;5543;51.734;8.744;2022-08-03T08:49:53;30.00;86.20
10980;DHT22;5543;51.734;8.744;2022-08-03T08:52:39;30.20;87.40
10980;DHT22;5543;51.734;8.744;2022-08-03T08:55:12;30.40;85.20
10980;DHT22;5543;51.734;8.744;2022-08-03T08:57:46;30.50;85.40
10980;DHT22;5543;51.734;8.744;2022-08-03T09:00:16;30.80;82.90
10980;DHT22;5543;51.734;8.744;2022-08-03T09:02:44;31.10;83.00
10980;DHT22;5543;51.734;8.744;2022-08-03T09:05:13;31.30;79.40
10980;DHT22;5543;51.734;8.744;2022-08-03T09:07:45;31.40;77.50
10980;DHT22;5543;51.734;8.744;2022-08-03T09:10:15;31.70;76.70
10980;DHT22;5543;51.734;8.744;2022-08-03T09:12:47;31.90;78.80
10980;DHT22;5543;51.734;8.744;2022-08-03T09:15:17;32.10;78.40
10980;DHT22;5543;51.734;8.744;2022-08-03T09:17:45;32.20;74.70
10980;DHT22;5543;51.734;8.744;2022-08-03T09:20:17;32.50;74.70
10980;DHT22;5543;51.734;8.744;2022-08-03T09:22:53;32.50;74.20
10980;DHT22;5543;51.734;8.744;2022-08-03T09:25:30;32.90;69.90
10980;DHT22;5543;51.734;8.744;2022-08-03T09:28:06;33.30;70.40
10980;DHT22;5543;51.734;8.744;2022-08-03T09:30:37;33.50;70.50
10980;DHT22;5543;51.734;8.744;2022-08-03T09:33:07;33.70;72.70
10980;DHT22;5543;51.734;8.744;2022-08-03T09:35:43;33.90;71.50
10980;DHT22;5543;51.734;8.744;2022-08-03T09:38:23;34.10;70.50
10980;DHT22;5543;51.734;8.744;2022-08-03T09:40:54;34.40;68.40
10980;DHT22;5543;51.734;8.744;2022-08-03T09:43:26;34.70;67.80
10980;DHT22;5543;51.734;8.744;2022-08-03T09:46:02;34.90;68.60
10980;DHT22;5543;51.734;8.744;2022-08-03T09:48:31;35.20;67.40
10980;DHT22;5543;51.734;8.744;2022-08-03T09:51:04;35.40;64.30
10980;DHT22;5543;51.734;8.744;2022-08-03T09:53:54;35.60;60.40
10980;DHT22;5543;51.734;8.744;2022-08-03T09:56:41;35.70;64.40
10980;DHT22;5543;51.734;8.744;2022-08-03T09:59:11;36.00;65.10
10980;DHT22;5543;51.734;8.744;2022-08-03T10:01:39;36.30;62.90
10980;DHT22;5543;51.734;8.744;2022-08-03T10:04:12;36.30;61.60
10980;DHT22;5543;51.734;8.744;2022-08-03T10:06:43;36.50;62.70
10980;DHT22;5543;51.734;8.744;2022-08-03T10:09:14;36.90;63.00
10980;DHT22;5543;51.734;8.744;2022-08-03T10:11:43;36.90;60.10
10980;DHT22;5543;51.734;8.744;2022-08-03T10:14:12;36.80;56.10
10980;DHT22;5543;51.734;8.744;2022-08-03T10:16:46;36.90;58.70
10980;DHT22;5543;51.734;8.744;2022-08-03T10:19:15;36.60;56.60
10980;DHT22;5543;51.734;8.744;2022-08-03T10:21:48;36.40;58.60
10980;DHT22;5543;51.734;8.744;2022-08-03T10:24:24;36.30;57.50
10980;DHT22;5543;51.734;8.744;2022-08-03T10:27:00;36.20;59.70
10980;DHT22;5543;51.734;8.744;2022-08-03T10:29:32;36.40;58.90
10980;DHT22;5543;51.734;8.744;2022-08-03T10:32:04;36.80;58.80
10980;DHT22;5543;51.734;8.744;2022-08-03T10:34:39;36.90;55.10
10980;DHT22;5543;51.734;8.744;2022-08-03T10:37:11;36.90;53.80
10980;DHT22;5543;51.734;8.744;2022-08-03T10:39:44;37.30;57.10
10980;DHT22;5543;51.734;8.744;2022-08-03T10:42:23;37.70;58.20
10980;DHT22;5543;51.734;8.744;2022-08-03T10:44:59;38.00;55.20
10980;DHT22;5543;51.734;8.744;2022-08-03T10:47:29;38.30;55.20
10980;DHT22;5543;51.734;8.744;2022-08-03T10:49:58;38.50;53.60
10980;DHT22;5543;51.734;8.744;2022-08-03T10:52:27;38.60;52.40
10980;DHT22;5543;51.734;8.744;2022-08-03T10:55:01;38.60;52.00
10980;DHT22;5543;51.734;8.744;2022-08-03T10:58:07;38.60;51.90
10980;DHT22;5543;51.734;8.744;2022-08-03T11:00:48;38.90;51.00
10980;DHT22;5543;51.734;8.744;2022-08-03T11:03:16;39.10;51.50
10980;DHT22;5543;51.734;8.744;2022-08-03T11:05:46;39.40;50.50
10980;DHT22;5543;51.734;8.744;2022-08-03T11:08:27;39.40;49.20
10980;DHT22;5543;51.734;8.744;2022-08-03T11:10:59;39.50;52.90
10980;DHT22;5543;51.734;8.744;2022-08-03T11:13:28;39.80;46.10
10980;DHT22;5543;51.734;8.744;2022-08-03T11:16:17;39.70;46.20
10980;DHT22;5543;51.734;8.744;2022-08-03T11:18:55;39.80;48.40
10980;DHT22;5543;51.734;8.744;2022-08-03T11:21:57;39.80;47.60
10980;DHT22;5543;51.734;8.744;2022-08-03T11:24:56;40.00;45.60
10980;DHT22;5543;51.734;8.744;2022-08-03T11:27:28;39.70;45.00
10980;DHT22;5543;51.734;8.744;2022-08-03T11:30:02;39.70;47.70
10980;DHT22;5543;51.734;8.744;2022-08-03T11:32:50;40.00;47.60
10980;DHT22;5543;51.734;8.744;2022-08-03T11:35:20;40.00;44.90
10980;DHT22;5543;51.734;8.744;2022-08-03T11:38:10;39.90;45.40
10980;DHT22;5543;51.734;8.744;2022-08-03T11:40:41;40.10;47.60
10980;DHT22;5543;51.734;8.744;2022-08-03T11:43:44;40.60;46.50
10980;DHT22;5543;51.734;8.744;2022-08-03T11:46:13;40.60;44.60
10980;DHT22;5543;51.734;8.744;2022-08-03T11:49:03;40.50;44.90
10980;DHT22;5543;51.734;8.744;2022-08-03T11:51:37;40.70;48.00
10980;DHT22;5543;51.734;8.744;2022-08-03T11:54:06;40.30;46.50
10980;DHT22;5543;51.734;8.744;2022-08-03T11:56:45;40.10;46.60
10980;DHT22;5543;51.734;8.744;2022-08-03T11:59:16;39.90;47.50
10980;DHT22;5543;51.734;8.744;2022-08-03T12:01:48;40.00;45.70
10980;DHT22;5543;51.734;8.744;2022-08-03T12:04:16;40.30;48.30
10980;DHT22;5543;51.734;8.744;2022-08-03T12:06:57;40.40;45.00
10980;DHT22;5543;51.734;8.744;2022-08-03T12:09:26;40.20;46.10
10980;DHT22;5543;51.734;8.744;2022-08-03T12:11:54;40.10;46.10
10980;DHT22;5543;51.734;8.744;2022-08-03T12:14:28;40.10;47.40
10980;DHT22;5543;51.734;8.744;2022-08-03T12:17:16;39.80;45.50
10980;DHT22;5543;51.734;8.744;2022-08-03T12:19:45;39.70;47.80
10980;DHT22;5543;51.734;8.744;2022-08-03T12:22:13;39.40;48.00
10980;DHT22;5543;51.734;8.744;2022-08-03T12:24:43;39.00;48.50
10980;DHT22;5543;51.734;8.744;2022-08-03T12:27:22;38.30;48.60
10980;DHT22;5543;51.734;8.744;2022-08-03T12:29:54;37.80;47.80
10980;DHT22;5543;51.734;8.744;2022-08-03T12:32:25;37.30;51.40
10980;DHT22;5543;51.734;8.744;2022-08-03T12:34:53;36.60;48.10
10980;DHT22;5543;51.734;8.744;2022-08-03T12:37:26;36.40;49.50
10980;DHT22;5543;51.734;8.744;2022-08-03T12:39:56;36.10;52.00
10980;DHT22;5543;51.734;8.744;2022-08-03T12:42:33;36.30;52.60
10980;DHT22;5543;51.734;8.744;2022-08-03T12:45:18;36.40;51.60
10980;DHT22;5543;51.734;8.744;2022-08-03T12:47:54;36.60;52.80
10980;DHT22;5543;51.734;8.744;2022-08-03T12:50:24;37.00;49.40
10980;DHT22;5543;51.734;8.744;2022-08-03T12:52:53;37.10;51.20
10980;DHT22;5543;51.734;8.744;2022-08-03T12:55:22;37.40;48.90
10980;DHT22;5543;51.734;8.744;2022-08-03T12:57:50;37.60;47.90
10980;DHT22;5543;51.734;8.744;2022-08-03T13:00:21;37.70;46.60
10980;DHT22;5543;51.734;8.744;2022-08-03T13:03:00;37.90;50.50
10980;DHT22;5543;51.734;8.744;2022-08-03T13:05:49;38.30;49.20
10980;DHT22;5543;51.734;8.744;2022-08-03T13:08:19;39.00;47.40
10980;DHT22;5543;51.734;8.744;2022-08-03T13:10:48;39.60;47.20
10980;DHT22;5543;51.734;8.744;2022-08-03T13:13:16;40.00;48.10
10980;DHT22;5543;51.734;8.744;2022-08-03T13:15:47;40.20;43.70
10980;DHT22;5543;51.734;8.744;2022-08-03T13:18:16;40.30;44.90
10980;DHT22;5543;51.734;8.744;2022-08-03T13:20:45;40.50;44.50
10980;DHT22;5543;51.734;8.744;2022-08-03T13:23:13;40.60;43.80
10980;DHT22;5543;51.734;8.744;2022-08-03T13:25:48;41.40;41.60
10980;DHT22;5543;51.734;8.744;2022-08-03T13:28:22;41.80;42.60
10980;DHT22;5543;51.734;8.744;2022-08-03T13:30:51;41.70;42.00
10980;DHT22;5543;51.734;8.744;2022-08-03T13:33:20;41.90;42.30
10980;DHT22;5543;51.734;8.744;2022-08-03T13:35:49;42.30;43.20
10980;DHT22;5543;51.734;8.744;2022-08-03T13:38:17;42.20;39.90
10980;DHT22;5543;51.734;8.744;2022-08-03T13:40:53;41.90;43.60
10980;DHT22;5543;51.734;8.744;2022-08-03T13:43:21;42.10;42.00
10980;DHT22;5543;51.734;8.744;2022-08-03T13:45:51;41.80;41.50
10980;DHT22;5543;51.734;8.744;2022-08-03T13:48:23;41.70;42.70
10980;DHT22;5543;51.734;8.744;2022-08-03T13:51:03;41.80;41.80
10980;DHT22;5543;51.734;8.744;2022-08-03T13:53:48;41.90;42.10
10980;DHT22;5543;51.734;8.744;2022-08-03T13:56:16;41.40;40.40
10980;DHT22;5543;51.734;8.744;2022-08-03T13:58:44;41.10;41.60
10980;DHT22;5543;51.734;8.744;2022-08-03T14:01:14;40.70;43.40
10980;DHT22;5543;51.734;8.744;2022-08-03T14:03:42;40.50;44.00
10980;DHT22;5543;51.734;8.744;2022-08-03T14:06:11;40.20;44.60
10980;DHT22;5543;51.734;8.744;2022-08-03T14:08:40;40.00;45.50
10980;DHT22;5543;51.734;8.744;2022-08-03T14:11:08;39.60;44.70
10980;DHT22;5543;51.734;8.744;2022-08-03T14:13:37;38.90;46.80
10980;DHT22;5543;51.734;8.744;2022-08-03T14:16:05;38.20;45.90
10980;DHT22;5543;51.734;8.744;2022-08-03T14:18:37;37.60;50.80
10980;DHT22;5543;51.734;8.744;2022-08-03T14:21:07;37.30;49.00
10980;DHT22;5543;51.734;8.744;2022-08-03T14:23:35;37.30;47.40
10980;DHT22;5543;51.734;8.744;2022-08-03T14:26:05;37.60;47.90
10980;DHT22;5543;51.734;8.744;2022-08-03T14:28:34;37.60;47.90
10980;DHT22;5543;51.734;8.744;2022-08-03T14:31:03;37.60;48.80
10980;DHT22;5543;51.734;8.744;2022-08-03T14:33:52;37.20;50.40
10980;DHT22;5543;51.734;8.744;2022-08-03T14:36:20;36.40;52.00
10980;DHT22;5543;51.734;8.744;2022-08-03T14:38:48;35.80;52.10
10980;DHT22;5543;51.734;8.744;2022-08-03T14:41:17;35.40;52.60
10980;DHT22;5543;51.734;8.744;2022-08-03T14:43:46;35.20;51.10
10980;DHT22;5543;51.734;8.744;2022-08-03T14:46:28;34.90;54.70
10980;DHT22;5543;51.734;8.744;2022-08-03T14:48:58;34.50;54.20
10980;DHT22;5543;51.734;8.744;2022-08-03T14:51:46;34.10;55.20
10980;DHT22;5543;51.734;8.744;2022-08-03T14:54:20;33.70;57.40
10980;DHT22;5543;51.734;8.744;2022-08-03T14:56:48;33.60;53.90
10980;DHT22;5543;51.734;8.744;2022-08-03T14:59:16;33.80;57.00
10980;DHT22;5543;51.734;8.744;2022-08-03T15:01:45;34.10;57.50
10980;DHT22;5543;51.734;8.744;2022-08-03T15:04:34;34.30;56.90
10980;DHT22;5543;51.734;8.744;2022-08-03T15:07:02;34.20;56.30
10980;DHT22;5543;51.734;8.744;2022-08-03T15:09:31;34.20;52.40
10980;DHT22;5543;51.734;8.744;2022-08-03T15:11:59;34.30;56.80
10980;DHT22;5543;51.734;8.744;2022-08-03T15:14:27;34.50;55.00
10980;DHT22;5543;51.734;8.744;2022-08-03T15:17:04;34.60;53.40
10980;DHT22;5543;51.734;8.744;2022-08-03T15:19:34;34.70;55.30
10980;DHT22;5543;51.734;8.744;2022-08-03T15:22:22;34.80;56.70
10980;DHT22;5543;51.734;8.744;2022-08-03T15:25:01;34.90;53.60
10980;DHT22;5543;51.734;8.744;2022-08-03T15:27:29;34.80;54.10
10980;DHT22;5543;51.734;8.744;2022-08-03T15:29:57;34.90;55.80
10980;DHT22;5543;51.734;8.744;2022-08-03T15:32:36;34.90;54.50
10980;DHT22;5543;51.734;8.744;2022-08-03T15:35:06;34.80;54.90
10980;DHT22;5543;51.734;8.744;2022-08-03T15:37:34;34.90;54.60
10980;DHT22;5543;51.734;8.744;2022-08-03T15:40:03;34.90;55.00
10980;DHT22;5543;51.734;8.744;2022-08-03T15:42:32;34.90;54.40
10980;DHT22;5543;51.734;8.744;2022-08-03T15:45:00;34.90;57.00
10980;DHT22;5543;51.734;8.744;2022-08-03T15:47:29;35.00;53.90
10980;DHT22;5543;51.734;8.744;2022-08-03T15:49:57;35.10;52.40
10980;DHT22;5543;51.734;8.744;2022-08-03T15:52:27;35.20;52.90
10980;DHT22;5543;51.734;8.744;2022-08-03T15:54:55;34.90;51.20
10980;DHT22;5543;51.734;8.744;2022-08-03T15:57:23;34.90;54.50
10980;DHT22;5543;51.734;8.744;2022-08-03T15:59:51;34.80;53.20
10980;DHT22;5543;51.734;8.744;2022-08-03T16:02:20;34.80;53.20
10980;DHT22;5543;51.734;8.744;2022-08-03T16:04:48;34.80;53.70
10980;DHT22;5543;51.734;8.744;2022-08-03T16:07:17;34.80;53.80
10980;DHT22;5543;51.734;8.744;2022-08-03T16:10:28;34.70;52.80
10980;DHT22;5543;51.734;8.744;2022-08-03T16:12:56;34.70;52.30
10980;DHT22;5543;51.734;8.744;2022-08-03T16:15:26;34.60;53.00
10980;DHT22;5543;51.734;8.744;2022-08-03T16:17:54;34.40;54.50
10980;DHT22;5543;51.734;8.744;2022-08-03T16:20:22;34.20;54.30